Terminal Aerodrome Forecast
Issued by NWS

Current Version | Previous Version | Text Only | Print | Product List | Glossary Off
Versions: 1 2 3 4 5 6 7 8 9 10 11 12 13 14 15 16 17 18 19 20 21 22 23

000
FTUS41 KRLX 211525 AAB
TAFCKB
TAF AMD
KCKB 211525Z 2115/2212 03004KT 6SM -RA BR SCT006 OVC025
      TEMPO 2115/2117 5SM -RA BR BKN006
     FM211700 VRB03KT 6SM -RA OVC030
     FM211800 00000KT P6SM OVC020
     FM211900 00000KT P6SM BKN025
     FM220500 VRB03KT P6SM SCT045
     FM220900 VRB03KT P6SM FEW150=

USA.gov is the U.S. government's official web portal to all federal, state and local government web resources and services.